createdAt,value
2019-01-13T00:02:01.056Z,5.05
2019-01-13T00:04:30.168Z,3.65
2019-01-13T00:06:59.011Z,6.20
2019-01-13T00:09:30.865Z,4.62
2019-01-13T00:11:59.846Z,5.22
2019-01-13T00:14:28.693Z,4.05
2019-01-13T00:16:57.803Z,5.80
2019-01-13T00:19:26.610Z,5.85
2019-01-13T00:22:07.067Z,3.85
2019-01-13T00:24:35.972Z,3.83
2019-01-13T00:27:05.071Z,4.45
2019-01-13T00:29:33.972Z,5.62
2019-01-13T00:32:02.746Z,4.53
2019-01-13T00:34:31.737Z,6.95
2019-01-13T00:37:00.533Z,5.20
2019-01-13T00:39:29.388Z,4.10
2019-01-13T00:41:58.204Z,5.03
2019-01-13T00:44:27.033Z,6.55
2019-01-13T00:47:12.078Z,4.08
2019-01-13T00:49:40.943Z,4.72
2019-01-13T00:52:09.851Z,6.67
2019-01-13T00:54:38.743Z,4.83
2019-01-13T00:57:07.536Z,7.70
2019-01-13T00:59:36.522Z,7.47
2019-01-13T01:02:05.536Z,4.12
2019-01-13T01:04:34.454Z,6.37
2019-01-13T01:07:04.798Z,7.15
2019-01-13T01:09:33.778Z,4.35
2019-01-13T01:12:02.534Z,3.95
2019-01-13T01:14:31.458Z,3.42
2019-01-13T01:17:00.249Z,4.20
2019-01-13T01:19:29.129Z,4.58
2019-01-13T01:21:57.971Z,3.35
2019-01-13T01:24:26.784Z,3.85
2019-01-13T01:26:55.717Z,3.00
2019-01-13T01:29:24.510Z,4.72
2019-01-13T01:31:53.359Z,2.50
2019-01-13T01:34:22.675Z,5.17
2019-01-13T01:36:51.698Z,2.70
2019-01-13T01:39:20.679Z,3.75
2019-01-13T01:41:51.027Z,4.12
2019-01-13T01:44:23.664Z,2.30
2019-01-13T01:46:52.563Z,4.47
2019-01-13T01:49:21.325Z,2.50
2019-01-13T01:51:50.193Z,2.30
2019-01-13T01:54:18.981Z,2.65
2019-01-13T01:56:47.898Z,1.60
2019-01-13T01:59:16.772Z,2.40
2019-01-13T02:01:45.623Z,2.00
2019-01-13T02:04:14.435Z,1.67
2019-01-13T02:06:43.246Z,1.30
2019-01-13T02:09:12.146Z,2.67
2019-01-13T02:11:40.907Z,3.47
2019-01-13T02:14:09.762Z,4.95
2019-01-13T02:16:38.620Z,4.35
2019-01-13T02:19:07.545Z,2.77
2019-01-13T02:21:36.530Z,2.80
2019-01-13T02:24:05.508Z,2.50
2019-01-13T02:26:34.426Z,4.75
2019-01-13T02:29:03.343Z,5.25
2019-01-13T02:31:32.104Z,4.30
2019-01-13T02:34:00.908Z,2.35
2019-01-13T02:36:29.742Z,2.25
2019-01-13T02:38:58.541Z,3.55
2019-01-13T02:41:28.611Z,2.33
2019-01-13T02:43:57.383Z,2.72
2019-01-13T02:46:26.291Z,2.47
2019-01-13T02:48:55.174Z,2.35
2019-01-13T02:51:24.052Z,4.47
2019-01-13T02:53:52.914Z,2.72
2019-01-13T02:56:21.723Z,6.17
2019-01-13T02:58:50.701Z,2.30
2019-01-13T03:01:19.593Z,2.30
2019-01-13T03:03:48.539Z,3.05
2019-01-13T03:06:17.401Z,3.55
2019-01-13T03:08:46.251Z,4.03
2019-01-13T03:11:15.038Z,2.50
2019-01-13T03:13:43.832Z,2.70
2019-01-13T03:16:12.683Z,2.72
2019-01-13T03:18:41.549Z,3.80
2019-01-13T03:21:10.447Z,2.42
2019-01-13T03:23:39.327Z,5.20
2019-01-13T03:26:08.207Z,6.78
2019-01-13T03:28:37.023Z,5.42
2019-01-13T03:31:12.082Z,5.97
2019-01-13T03:33:36.444Z,3.10
2019-01-13T03:36:05.483Z,4.10
2019-01-13T03:38:34.463Z,2.87
2019-01-13T03:41:03.302Z,4.08
2019-01-13T03:43:32.111Z,4.22
2019-01-13T03:46:01.081Z,2.90
2019-01-13T03:48:29.969Z,4.10
2019-01-13T03:50:58.843Z,4.70
2019-01-13T03:53:27.629Z,3.12
2019-01-13T03:55:56.469Z,4.80
2019-01-13T03:58:25.337Z,5.08
2019-01-13T04:00:54.164Z,6.13
2019-01-13T04:03:23.124Z,2.90
2019-01-13T04:05:52.237Z,2.50
2019-01-13T04:08:21.138Z,6.20
2019-01-13T04:10:49.929Z,4.45
2019-01-13T04:13:18.744Z,5.80
2019-01-13T04:15:59.485Z,8.23
2019-01-13T04:18:28.424Z,5.10
2019-01-13T04:20:57.357Z,3.77
2019-01-13T04:23:26.260Z,4.20
2019-01-13T04:25:55.538Z,4.20
2019-01-13T04:28:24.368Z,8.08
2019-01-13T04:30:53.385Z,6.10
2019-01-13T04:33:22.355Z,4.33
2019-01-13T04:35:51.340Z,5.30
2019-01-13T04:38:20.203Z,5.25
2019-01-13T04:40:49.069Z,3.40
2019-01-13T04:43:17.919Z,8.85
2019-01-13T04:45:46.807Z,5.08
2019-01-13T04:48:15.723Z,4.30
2019-01-13T04:50:44.622Z,3.05
2019-01-13T04:53:13.402Z,5.80
2019-01-13T04:55:42.263Z,5.83
2019-01-13T04:58:11.095Z,5.75
2019-01-13T05:00:42.020Z,6.15
2019-01-13T05:03:10.857Z,5.72
2019-01-13T05:05:39.704Z,4.90
2019-01-13T05:08:08.631Z,3.35
2019-01-13T05:10:37.409Z,4.42
2019-01-13T05:13:06.391Z,3.95
2019-01-13T05:15:37.443Z,8.63
2019-01-13T05:18:06.207Z,7.45
2019-01-13T05:20:35.849Z,6.47
2019-01-13T05:23:09.321Z,6.92
2019-01-13T05:25:43.848Z,8.90
2019-01-13T05:28:14.691Z,6.80
2019-01-13T05:30:43.755Z,3.65
2019-01-13T05:33:12.939Z,4.72
2019-01-13T05:35:44.647Z,5.50
2019-01-13T05:38:13.572Z,3.98
2019-01-13T05:40:42.809Z,5.58
2019-01-13T05:43:12.064Z,4.47
2019-01-13T05:45:40.949Z,5.08
2019-01-13T05:48:10.086Z,5.70
2019-01-13T05:50:39.464Z,9.20
2019-01-13T05:53:09.864Z,5.58
2019-01-13T05:55:39.381Z,6.05
2019-01-13T05:58:11.069Z,5.92
2019-01-13T06:00:42.269Z,6.70
2019-01-13T06:03:11.471Z,3.62
2019-01-13T06:05:40.470Z,8.20
2019-01-13T06:08:09.270Z,6.77
2019-01-13T06:10:38.147Z,7.78
2019-01-13T06:13:08.870Z,4.92
2019-01-13T06:15:37.771Z,4.22
2019-01-13T06:18:07.313Z,4.67
2019-01-13T06:20:36.216Z,5.65
2019-01-13T06:23:05.895Z,4.30
2019-01-13T06:25:35.066Z,5.33
2019-01-13T06:28:05.644Z,3.15
2019-01-13T06:30:34.529Z,5.22
2019-01-13T06:33:03.636Z,3.70
2019-01-13T06:35:33.007Z,5.42
2019-01-13T06:38:03.786Z,4.97
2019-01-13T06:40:32.949Z,6.67
2019-01-13T06:43:01.739Z,5.55
2019-01-13T06:45:30.542Z,5.43
2019-01-13T06:47:59.410Z,7.28
2019-01-13T06:50:28.230Z,5.40
2019-01-13T06:52:57.231Z,10.40
2019-01-13T06:55:26.115Z,3.67
2019-01-13T06:57:54.908Z,7.00
2019-01-13T07:00:27.971Z,7.17
2019-01-13T07:02:57.473Z,6.50
2019-01-13T07:05:26.299Z,9.53
2019-01-13T07:07:55.216Z,5.42
2019-01-13T07:10:24.313Z,7.10
2019-01-13T07:12:53.263Z,5.42
2019-01-13T07:15:22.807Z,6.28
2019-01-13T07:17:52.043Z,4.17
2019-01-13T07:20:22.187Z,2.57
2019-01-13T07:22:51.247Z,5.83
2019-01-13T07:25:20.071Z,6.05
2019-01-13T07:27:48.929Z,8.13
2019-01-13T07:30:25.239Z,4.70
2019-01-13T07:32:54.557Z,9.48
2019-01-13T07:35:23.519Z,6.70
2019-01-13T07:37:52.482Z,6.60
2019-01-13T07:40:22.606Z,4.10
2019-01-13T07:42:52.117Z,2.37
2019-01-13T07:45:31.039Z,7.33
2019-01-13T07:48:00.894Z,7.05
2019-01-13T07:50:29.796Z,5.25
2019-01-13T07:52:58.898Z,5.45
2019-01-13T07:55:28.485Z,4.10
2019-01-13T07:57:57.992Z,8.47
2019-01-13T08:00:31.906Z,8.60
2019-01-13T08:03:01.664Z,3.85
2019-01-13T08:05:30.969Z,8.10
2019-01-13T08:07:59.951Z,7.47
2019-01-13T08:10:28.897Z,9.30
2019-01-13T08:12:57.909Z,7.90
2019-01-13T08:15:26.798Z,8.90
2019-01-13T08:17:55.589Z,6.30
2019-01-13T08:20:31.116Z,5.70
2019-01-13T08:23:00.013Z,8.58
2019-01-13T08:25:29.221Z,6.40
2019-01-13T08:27:58.240Z,8.43
2019-01-13T08:30:27.254Z,3.60
2019-01-13T08:32:56.185Z,4.30
2019-01-13T08:35:25.060Z,4.70
2019-01-13T08:37:53.959Z,7.08
2019-01-13T08:40:23.496Z,5.53
2019-01-13T08:42:52.552Z,4.72
2019-01-13T08:45:21.524Z,5.20
2019-01-13T08:47:50.551Z,4.10
2019-01-13T08:50:21.516Z,3.83
2019-01-13T08:52:50.840Z,5.40
2019-01-13T08:55:20.103Z,7.20
2019-01-13T08:57:49.044Z,5.58
2019-01-13T09:00:32.075Z,6.30
2019-01-13T09:03:01.522Z,4.87
2019-01-13T09:05:30.365Z,5.47
2019-01-13T09:07:59.297Z,5.90
2019-01-13T09:10:28.215Z,4.53
2019-01-13T09:12:57.187Z,7.63
2019-01-13T09:15:26.744Z,6.33
2019-01-13T09:17:55.789Z,6.30
2019-01-13T09:20:29.628Z,7.65
2019-01-13T09:22:59.996Z,5.80
2019-01-13T09:25:41.118Z,4.60
2019-01-13T09:28:10.080Z,5.10
2019-01-13T09:30:38.990Z,4.83
2019-01-13T09:33:09.707Z,6.70
2019-01-13T09:35:40.873Z,4.95
2019-01-13T09:38:13.045Z,7.22
2019-01-13T09:40:42.577Z,7.45
2019-01-13T09:43:11.833Z,7.20
2019-01-13T09:45:40.786Z,6.35
2019-01-13T09:48:09.720Z,6.47
2019-01-13T09:50:38.695Z,7.33
2019-01-13T09:53:10.379Z,7.17
2019-01-13T09:55:42.265Z,4.33
2019-01-13T09:58:11.084Z,5.47
2019-01-13T10:00:40.178Z,6.17
2019-01-13T10:03:09.924Z,4.87
2019-01-13T10:05:39.278Z,4.70
2019-01-13T10:08:08.745Z,8.08
2019-01-13T10:10:37.679Z,3.42
2019-01-13T10:13:06.615Z,6.15
2019-01-13T10:15:35.526Z,6.60
2019-01-13T10:18:04.537Z,6.15
2019-01-13T10:20:33.371Z,5.75
2019-01-13T10:23:02.358Z,4.58
2019-01-13T10:25:31.258Z,3.95
2019-01-13T10:28:00.141Z,6.25
2019-01-13T10:30:32.741Z,5.05
2019-01-13T10:33:01.804Z,5.22
2019-01-13T10:35:30.814Z,4.28
2019-01-13T10:37:59.705Z,6.10
2019-01-13T10:40:49.799Z,3.92
2019-01-13T10:43:18.628Z,4.67
2019-01-13T10:45:47.563Z,6.65
2019-01-13T10:48:16.392Z,5.72
2019-01-13T10:50:45.295Z,5.00
2019-01-13T10:53:14.149Z,3.80
2019-01-13T10:55:43.029Z,4.00
2019-01-13T10:58:11.951Z,3.90
2019-01-13T11:00:40.834Z,3.83
2019-01-13T11:03:09.767Z,3.05
2019-01-13T11:05:38.672Z,4.35
2019-01-13T11:08:11.807Z,5.42
2019-01-13T11:10:38.753Z,4.00
2019-01-13T11:13:07.541Z,5.20
2019-01-13T11:15:36.440Z,4.10
2019-01-13T11:18:06.241Z,4.15
2019-01-13T11:20:39.374Z,4.25
2019-01-13T11:23:08.833Z,4.10
2019-01-13T11:25:37.812Z,3.80
2019-01-13T11:28:07.168Z,3.05
2019-01-13T11:30:36.191Z,3.30
2019-01-13T11:33:09.755Z,4.10
2019-01-13T11:35:36.163Z,3.98
2019-01-13T11:38:05.245Z,2.17
2019-01-13T11:40:34.325Z,2.70
2019-01-13T11:43:03.259Z,2.70
2019-01-13T11:45:32.087Z,2.67
2019-01-13T11:48:01.063Z,3.77
2019-01-13T11:50:30.042Z,2.60
2019-01-13T11:52:58.847Z,1.50
2019-01-13T11:55:27.610Z,2.60
2019-01-13T11:57:56.505Z,2.27
2019-01-13T12:00:45.812Z,1.70
2019-01-13T12:03:17.040Z,3.63
2019-01-13T12:05:45.375Z,2.20
2019-01-13T12:08:14.394Z,1.30
2019-01-13T12:10:43.477Z,1.90
2019-01-13T12:13:12.450Z,1.98
2019-01-13T12:15:43.625Z,1.50
2019-01-13T12:18:12.382Z,1.32
2019-01-13T12:20:41.341Z,1.17
2019-01-13T12:23:10.195Z,1.55
2019-01-13T12:25:39.025Z,1.40
2019-01-13T12:28:09.189Z,2.55
2019-01-13T12:30:38.175Z,1.70
2019-01-13T12:33:09.647Z,0.90
2019-01-13T12:35:38.664Z,2.10
2019-01-13T12:38:07.637Z,1.90
2019-01-13T12:40:36.589Z,1.40
2019-01-13T12:43:06.568Z,1.85
2019-01-13T12:45:35.472Z,2.60
2019-01-13T12:48:05.329Z,1.60
2019-01-13T12:50:34.340Z,3.15
2019-01-13T12:53:03.631Z,1.62
2019-01-13T12:55:32.441Z,1.83
2019-01-13T12:58:01.468Z,1.47
2019-01-13T13:00:30.344Z,1.60
2019-01-13T13:02:59.335Z,1.73
2019-01-13T13:05:28.305Z,5.50
2019-01-13T13:07:57.173Z,3.90
2019-01-13T13:10:37.647Z,10.85
2019-01-13T13:13:07.106Z,1.67
2019-01-13T13:15:36.240Z,1.50
2019-01-13T13:18:05.315Z,2.10
2019-01-13T13:20:34.214Z,3.22
2019-01-13T13:23:04.376Z,3.98
2019-01-13T13:25:33.422Z,3.92
2019-01-13T13:28:02.363Z,2.30
2019-01-13T13:30:31.265Z,3.00
2019-01-13T13:33:00.223Z,4.50
2019-01-13T13:35:29.315Z,2.12
2019-01-13T13:37:58.332Z,1.40
2019-01-13T13:40:27.514Z,3.20
2019-01-13T13:42:57.823Z,5.77
2019-01-13T13:45:26.668Z,2.70
2019-01-13T13:47:55.508Z,3.45
2019-01-13T13:50:25.479Z,4.20
2019-01-13T13:52:54.749Z,5.10
2019-01-13T13:55:23.711Z,4.67
2019-01-13T13:57:52.903Z,7.35
2019-01-13T14:00:27.155Z,3.50
2019-01-13T14:02:56.485Z,6.45
2019-01-13T14:05:25.747Z,4.22
2019-01-13T14:07:59.185Z,5.80
2019-01-13T14:10:34.477Z,4.08
2019-01-13T14:13:03.425Z,2.80
2019-01-13T14:15:32.590Z,2.90
2019-01-13T14:18:01.458Z,3.35
2019-01-13T14:20:31.208Z,5.30
2019-01-13T14:23:00.114Z,10.93
2019-01-13T14:25:28.978Z,3.65
2019-01-13T14:27:58.277Z,5.93
2019-01-13T14:30:27.726Z,4.33
2019-01-13T14:32:57.089Z,4.87
2019-01-13T14:35:26.084Z,4.90
2019-01-13T14:37:55.797Z,3.40
2019-01-13T14:40:25.724Z,5.30
2019-01-13T14:42:54.919Z,5.20
2019-01-13T14:45:25.689Z,5.90
2019-01-13T14:47:54.749Z,5.00
2019-01-13T14:50:27.356Z,3.20
2019-01-13T14:52:56.398Z,3.77
2019-01-13T14:55:25.334Z,3.58
2019-01-13T14:57:54.489Z,5.85
2019-01-13T15:00:29.460Z,3.90
2019-01-13T15:02:58.749Z,4.00
2019-01-13T15:05:27.755Z,5.10
2019-01-13T15:07:56.754Z,2.83
2019-01-13T15:10:25.735Z,3.60
2019-01-13T15:12:54.805Z,3.20
2019-01-13T15:15:24.035Z,2.72
2019-01-13T15:17:52.814Z,2.90
2019-01-13T15:20:22.984Z,2.90
2019-01-13T15:22:53.090Z,3.65
2019-01-13T15:25:25.166Z,4.60
2019-01-13T15:27:56.620Z,5.37
2019-01-13T15:30:36.692Z,4.60
2019-01-13T15:33:06.874Z,4.12
2019-01-13T15:35:35.699Z,3.67
2019-01-13T15:38:05.171Z,2.50
2019-01-13T15:40:34.138Z,3.55
2019-01-13T15:43:03.059Z,6.40
2019-01-13T15:45:31.923Z,3.22
2019-01-13T15:48:02.253Z,2.08
2019-01-13T15:50:31.329Z,3.40
2019-01-13T15:53:00.280Z,1.67
2019-01-13T15:55:29.241Z,2.27
2019-01-13T15:57:58.272Z,2.30
2019-01-13T16:00:29.574Z,4.17
2019-01-13T16:02:58.654Z,2.90
2019-01-13T16:05:28.875Z,2.72
2019-01-13T16:07:57.768Z,2.90
2019-01-13T16:10:26.794Z,2.62
2019-01-13T16:12:55.985Z,3.30
2019-01-13T16:15:24.775Z,2.10
2019-01-13T16:17:54.033Z,5.33
2019-01-13T16:20:25.358Z,3.60
2019-01-13T16:22:56.507Z,2.17
2019-01-13T16:25:25.699Z,2.20
2019-01-13T16:27:54.675Z,2.70
2019-01-13T16:30:24.607Z,3.45
2019-01-13T16:32:53.791Z,2.50
2019-01-13T16:35:22.790Z,9.58
2019-01-13T16:37:51.861Z,4.15
2019-01-13T16:40:24.541Z,3.70
2019-01-13T16:42:56.805Z,3.80
2019-01-13T16:45:28.011Z,8.08
2019-01-13T16:47:57.042Z,4.25
2019-01-13T16:50:26.892Z,3.40
2019-01-13T16:52:57.334Z,6.05
2019-01-13T16:55:27.510Z,3.42
2019-01-13T16:57:56.704Z,2.80
2019-01-13T17:00:29.517Z,1.70
2019-01-13T17:02:58.523Z,4.22
2019-01-13T17:05:28.776Z,4.60
2019-01-13T17:07:57.707Z,6.35
2019-01-13T17:10:27.889Z,4.55
2019-01-13T17:12:56.762Z,2.55
2019-01-13T17:15:45.000Z,2.00
2019-01-13T17:18:13.983Z,7.12
2019-01-13T17:20:43.041Z,2.72
2019-01-13T17:23:11.998Z,4.90
2019-01-13T17:25:41.010Z,8.48
2019-01-13T17:28:09.923Z,4.90
2019-01-13T17:30:38.953Z,4.35
2019-01-13T17:33:08.110Z,4.95
2019-01-13T17:35:37.183Z,7.60
2019-01-13T17:38:06.881Z,6.40
2019-01-13T17:40:35.956Z,4.30
2019-01-13T17:43:05.990Z,2.70
2019-01-13T17:45:35.889Z,10.13
2019-01-13T17:48:06.782Z,9.70
2019-01-13T17:50:36.064Z,7.08
2019-01-13T17:53:07.169Z,8.03
2019-01-13T17:55:36.137Z,7.05
2019-01-13T17:58:05.134Z,11.43
2019-01-13T18:00:49.830Z,5.40
2019-01-13T18:03:22.920Z,4.28
2019-01-13T18:05:52.375Z,3.80
2019-01-13T18:08:21.195Z,2.50
2019-01-13T18:10:50.092Z,1.70
2019-01-13T18:13:19.076Z,2.30
2019-01-13T18:15:50.870Z,1.70
2019-01-13T18:18:19.985Z,1.50
2019-01-13T18:20:49.346Z,2.87
2019-01-13T18:23:18.237Z,2.40
2019-01-13T18:25:47.265Z,3.70
2019-01-13T18:28:19.012Z,1.67
2019-01-13T18:30:47.992Z,1.67
2019-01-13T18:33:18.886Z,1.30
2019-01-13T18:35:48.285Z,1.82
2019-01-13T18:41:02.608Z,1.10
2019-01-13T18:43:35.808Z,1.10
2019-01-13T18:46:05.327Z,3.65
2019-01-13T18:48:37.206Z,1.80
2019-01-13T18:51:06.319Z,1.60
2019-01-13T18:53:35.401Z,1.60
2019-01-13T18:56:05.820Z,2.67
2019-01-13T18:58:34.676Z,1.25
2019-01-13T19:01:12.508Z,1.70
2019-01-13T19:03:44.475Z,4.85
2019-01-13T19:06:13.480Z,4.15
2019-01-13T19:08:44.611Z,2.85
2019-01-13T19:11:36.021Z,2.00
2019-01-13T19:15:13.901Z,3.50
2019-01-13T19:17:43.680Z,3.60
2019-01-13T19:20:18.855Z,1.92
2019-01-13T19:22:50.183Z,6.70
2019-01-13T19:25:23.360Z,3.12
2019-01-13T19:27:52.386Z,14.10
2019-01-13T19:30:22.034Z,5.85
2019-01-13T19:32:52.950Z,4.10
2019-01-13T19:35:21.920Z,5.33
2019-01-13T19:37:50.917Z,6.15
2019-01-13T19:40:20.388Z,4.17
2019-01-13T19:42:49.762Z,5.62
2019-01-13T19:45:21.379Z,4.10
2019-01-13T19:47:53.026Z,4.00
2019-01-13T19:51:10.471Z,5.70
2019-01-13T19:54:32.239Z,7.40
2019-01-13T19:57:13.856Z,4.20
2019-01-13T19:59:43.165Z,7.27
2019-01-13T20:02:48.313Z,6.33
2019-01-13T20:05:38.151Z,8.38
2019-01-13T20:08:19.345Z,8.50
2019-01-13T20:10:55.635Z,5.95
2019-01-13T20:13:29.352Z,4.65
2019-01-13T20:16:12.399Z,7.60
2019-01-13T20:18:45.539Z,4.20
2019-01-13T20:21:14.659Z,7.10
2019-01-13T20:23:44.092Z,6.45
2019-01-13T20:26:13.219Z,6.70
2019-01-13T20:28:42.391Z,5.47
2019-01-13T20:31:11.359Z,5.92
2019-01-13T20:33:40.734Z,7.08
2019-01-13T20:36:09.917Z,6.50
2019-01-13T20:38:39.094Z,7.47
2019-01-13T20:41:07.984Z,5.65
2019-01-13T20:43:37.929Z,6.45
2019-01-13T20:46:07.056Z,4.35
2019-01-13T20:48:37.317Z,4.67
2019-01-13T20:51:06.234Z,9.58
2019-01-13T20:53:39.022Z,6.75
2019-01-13T20:56:07.935Z,7.97
2019-01-13T20:58:36.978Z,6.55
2019-01-13T21:01:06.152Z,6.20
2019-01-13T21:03:35.701Z,10.55
2019-01-13T21:06:04.697Z,12.07
2019-01-13T21:08:33.673Z,9.80
2019-01-13T21:11:02.558Z,6.42
2019-01-13T21:13:31.550Z,8.80
2019-01-13T21:16:01.183Z,6.95
2019-01-13T21:18:30.002Z,7.50
2019-01-13T21:21:00.506Z,9.78
2019-01-13T21:23:29.536Z,8.70
2019-01-13T21:25:58.425Z,5.50
2019-01-13T21:28:27.639Z,7.65
2019-01-13T21:30:56.483Z,6.90
2019-01-13T21:33:25.566Z,5.80
2019-01-13T21:35:54.505Z,10.75
2019-01-13T21:38:23.633Z,9.25
2019-01-13T21:40:55.215Z,8.98
2019-01-13T21:43:24.434Z,8.70
2019-01-13T21:45:53.393Z,7.17
2019-01-13T21:48:22.206Z,11.83
2019-01-13T21:50:51.063Z,7.55
2019-01-13T21:53:19.957Z,8.13
2019-01-13T21:55:48.838Z,10.03
2019-01-13T21:58:17.795Z,12.47
2019-01-13T22:00:46.807Z,9.43
2019-01-13T22:03:16.005Z,7.50
2019-01-13T22:05:44.877Z,9.90
2019-01-13T22:08:14.119Z,6.75
2019-01-13T22:10:42.927Z,10.08
2019-01-13T22:13:11.830Z,8.88
2019-01-13T22:15:40.704Z,10.82
2019-01-13T22:18:09.829Z,5.83
2019-01-13T22:20:38.769Z,8.23
2019-01-13T22:23:10.781Z,8.95
2019-01-13T22:25:39.626Z,9.20
2019-01-13T22:28:08.471Z,10.50
2019-01-13T22:30:37.338Z,10.27
2019-01-13T22:33:06.298Z,8.65
2019-01-13T22:35:35.288Z,9.43
2019-01-13T22:38:04.369Z,8.55
2019-01-13T22:40:33.404Z,10.78
2019-01-13T22:43:02.397Z,6.95
2019-01-13T22:45:32.759Z,10.25
2019-01-13T22:48:01.841Z,6.12
2019-01-13T22:50:30.818Z,7.45
2019-01-13T22:52:59.750Z,12.03
2019-01-13T22:55:28.948Z,8.98
2019-01-13T22:57:57.747Z,14.18
2019-01-13T23:01:07.630Z,9.90
2019-01-13T23:03:37.459Z,9.90
2019-01-13T23:06:06.899Z,6.10
2019-01-13T23:08:35.967Z,11.18
2019-01-13T23:11:05.211Z,11.45
2019-01-13T23:13:34.100Z,8.50
2019-01-13T23:16:03.079Z,7.55
2019-01-13T23:18:31.918Z,5.53
2019-01-13T23:21:00.824Z,12.70
2019-01-13T23:23:29.697Z,8.95
2019-01-13T23:25:58.603Z,11.57
2019-01-13T23:28:27.485Z,6.85
2019-01-13T23:30:56.436Z,6.53
2019-01-13T23:33:25.226Z,11.25
2019-01-13T23:35:54.077Z,7.80
2019-01-13T23:38:23.059Z,9.25
2019-01-13T23:40:51.859Z,7.62
2019-01-13T23:43:20.731Z,8.00
2019-01-13T23:45:49.635Z,5.25
2019-01-13T23:48:18.473Z,8.48
2019-01-13T23:50:47.343Z,9.70
2019-01-13T23:53:16.193Z,8.85
2019-01-13T23:55:45.067Z,9.35
2019-01-13T23:58:15.802Z,5.97
